createdAt,value
2019-03-01T00:01:25.212Z,12.70
2019-03-01T00:04:32.415Z,14.83
2019-03-01T00:07:37.831Z,13.63
2019-03-01T00:10:19.730Z,17.27
2019-03-01T00:13:12.989Z,15.33
2019-03-01T00:16:04.474Z,19.37
2019-03-01T00:19:15.638Z,13.43
2019-03-01T00:22:15.434Z,12.40
2019-03-01T00:25:14.941Z,8.13
2019-03-01T00:28:20.487Z,13.47
2019-03-01T00:31:36.142Z,7.73
2019-03-01T00:34:28.229Z,12.67
2019-03-01T00:37:40.545Z,12.40
2019-03-01T00:40:58.033Z,14.60
2019-03-01T00:44:07.784Z,15.23
2019-03-01T00:46:35.526Z,9.53
2019-03-01T00:49:03.393Z,14.33
2019-03-01T00:51:31.293Z,15.43
2019-03-01T00:54:01.698Z,18.10
2019-03-01T00:56:29.481Z,16.93
2019-03-01T00:58:57.605Z,19.60
2019-03-01T01:01:25.321Z,24.57
2019-03-01T01:03:53.142Z,65.93
2019-03-01T01:06:21.169Z,58.13
2019-03-01T01:08:49.161Z,25.73
2019-03-01T01:11:16.889Z,31.03
2019-03-01T01:13:44.733Z,29.00
2019-03-01T01:16:12.758Z,48.50
2019-03-01T01:18:40.661Z,32.30
2019-03-01T01:21:08.507Z,22.87
2019-03-01T01:23:36.243Z,20.60
2019-03-01T01:26:04.058Z,20.63
2019-03-01T01:28:32.178Z,20.57
2019-03-01T01:31:00.404Z,25.30
2019-03-01T01:33:28.217Z,17.03
2019-03-01T01:35:56.381Z,19.83
2019-03-01T01:38:24.213Z,23.10
2019-03-01T01:40:51.934Z,25.67
2019-03-01T01:43:19.900Z,27.40
2019-03-01T01:45:47.834Z,26.90
2019-03-01T01:48:15.561Z,27.00
2019-03-01T01:50:43.838Z,31.80
2019-03-01T01:53:11.761Z,21.93
2019-03-01T01:55:39.461Z,22.00
2019-03-01T01:58:07.431Z,19.23
2019-03-01T02:00:35.137Z,16.67
2019-03-01T02:03:02.833Z,16.77
2019-03-01T02:05:30.845Z,18.00
2019-03-01T02:07:58.812Z,16.63
2019-03-01T02:10:26.660Z,16.83
2019-03-01T02:12:54.696Z,16.50
2019-03-01T02:15:22.439Z,19.87
2019-03-01T02:17:50.306Z,19.50
2019-03-01T02:20:18.305Z,21.23
2019-03-01T02:22:46.178Z,19.00
2019-03-01T02:25:14.494Z,19.53
2019-03-01T02:27:42.345Z,19.97
2019-03-01T02:30:15.254Z,21.93
2019-03-01T02:32:49.592Z,16.80
2019-03-01T02:35:19.512Z,21.37
2019-03-01T02:37:47.415Z,17.20
2019-03-01T02:40:16.067Z,16.83
2019-03-01T02:42:44.155Z,17.00
2019-03-01T02:45:13.766Z,17.73
2019-03-01T02:47:41.630Z,15.80
2019-03-01T02:50:10.013Z,15.80
2019-03-01T02:52:37.718Z,17.93
2019-03-01T02:55:06.296Z,16.93
2019-03-01T02:57:34.032Z,18.87
2019-03-01T03:00:01.740Z,20.93
2019-03-01T03:02:29.751Z,17.00
2019-03-01T03:04:57.462Z,22.87
2019-03-01T03:07:40.913Z,16.07
2019-03-01T03:10:08.860Z,15.70
2019-03-01T03:12:36.742Z,20.77
2019-03-01T03:15:05.133Z,20.80
2019-03-01T03:17:33.116Z,19.53
2019-03-01T03:20:01.066Z,24.00
2019-03-01T03:22:28.913Z,25.17
2019-03-01T03:24:56.615Z,26.50
2019-03-01T03:27:24.533Z,18.50
2019-03-01T03:29:52.503Z,19.37
2019-03-01T03:32:20.430Z,20.67
2019-03-01T03:34:48.507Z,19.40
2019-03-01T03:37:16.309Z,19.50
2019-03-01T03:39:44.351Z,19.93
2019-03-01T03:42:12.049Z,24.40
2019-03-01T03:44:40.026Z,22.60
2019-03-01T03:47:07.872Z,21.57
2019-03-01T03:49:35.582Z,22.13
2019-03-01T03:52:03.332Z,22.00
2019-03-01T03:54:31.308Z,23.50
2019-03-01T03:56:59.275Z,18.00
2019-03-01T03:59:26.997Z,17.17
2019-03-01T04:01:54.690Z,19.23
2019-03-01T04:04:22.578Z,18.53
2019-03-01T04:06:50.400Z,20.60
2019-03-01T04:09:18.122Z,14.93
2019-03-01T04:11:46.019Z,17.73
2019-03-01T04:14:13.980Z,17.03
2019-03-01T04:16:41.938Z,17.23
2019-03-01T04:19:09.799Z,18.30
2019-03-01T04:21:37.657Z,18.07
2019-03-01T04:24:05.747Z,19.33
2019-03-01T04:26:33.621Z,17.27
2019-03-01T04:29:01.395Z,21.87
2019-03-01T04:31:29.273Z,21.63
2019-03-01T04:33:57.132Z,18.80
2019-03-01T04:36:25.134Z,16.33
2019-03-01T04:38:53.119Z,18.70
2019-03-01T04:41:21.570Z,14.50
2019-03-01T04:43:49.324Z,20.13
2019-03-01T04:46:17.219Z,20.20
2019-03-01T04:48:44.941Z,16.43
2019-03-01T04:51:12.668Z,20.07
2019-03-01T04:53:40.391Z,19.87
2019-03-01T04:56:08.493Z,17.90
2019-03-01T04:58:36.494Z,19.50
2019-03-01T05:01:04.739Z,16.00
2019-03-01T05:03:32.457Z,18.20
2019-03-01T05:06:00.184Z,18.77
2019-03-01T05:08:28.057Z,17.93
2019-03-01T05:10:56.351Z,18.87
2019-03-01T05:13:24.269Z,17.53
2019-03-01T05:15:51.969Z,17.43
2019-03-01T05:18:19.856Z,17.60
2019-03-01T05:20:47.786Z,16.73
2019-03-01T05:23:15.710Z,18.60
2019-03-01T05:25:43.422Z,19.40
2019-03-01T05:28:11.386Z,13.37
2019-03-01T05:30:39.529Z,19.20
2019-03-01T05:33:07.417Z,14.13
2019-03-01T05:35:35.389Z,18.37
2019-03-01T05:38:03.263Z,15.07
2019-03-01T05:40:31.217Z,17.10
2019-03-01T05:42:59.230Z,21.03
2019-03-01T05:45:27.027Z,17.50
2019-03-01T05:47:54.864Z,15.97
2019-03-01T05:50:22.573Z,17.77
2019-03-01T05:52:50.497Z,16.00
2019-03-01T05:55:18.216Z,16.00
2019-03-01T05:58:24.249Z,16.97
2019-03-01T06:00:52.473Z,40.97
2019-03-01T06:04:13.885Z,17.20
2019-03-01T06:07:25.429Z,17.60
2019-03-01T06:10:27.809Z,15.40
2019-03-01T06:13:10.941Z,16.20
2019-03-01T06:16:29.291Z,18.93
2019-03-01T06:19:37.477Z,19.17
2019-03-01T06:22:51.112Z,16.03
2019-03-01T06:25:41.934Z,15.37
2019-03-01T06:28:57.627Z,19.00
2019-03-01T06:32:10.397Z,18.37
2019-03-01T06:35:19.251Z,18.37
2019-03-01T06:38:51.514Z,16.57
2019-03-01T06:41:54.845Z,17.13
2019-03-01T06:45:00.351Z,17.00
2019-03-01T06:47:38.978Z,23.07
2019-03-01T06:50:20.290Z,23.20
2019-03-01T06:52:48.014Z,21.37
2019-03-01T06:55:55.421Z,19.43
2019-03-01T06:58:43.560Z,20.97
2019-03-01T07:01:14.802Z,24.50
2019-03-01T07:03:43.815Z,26.50
2019-03-01T07:06:11.556Z,23.43
2019-03-01T07:08:39.267Z,17.77
2019-03-01T07:11:06.989Z,21.23
2019-03-01T07:13:34.739Z,16.90
2019-03-01T07:16:02.494Z,12.70
2019-03-01T07:18:30.217Z,14.33
2019-03-01T07:20:57.934Z,23.70
2019-03-01T07:23:25.685Z,19.47
2019-03-01T07:25:54.902Z,13.23
2019-03-01T07:28:22.745Z,16.17
2019-03-01T07:30:50.552Z,21.23
2019-03-01T07:33:18.325Z,27.77
2019-03-01T07:35:46.407Z,21.23
2019-03-01T07:38:14.263Z,22.27
2019-03-01T07:40:42.063Z,22.90
2019-03-01T07:43:09.777Z,21.53
2019-03-01T07:45:37.487Z,17.77
2019-03-01T07:48:05.234Z,18.53
2019-03-01T07:50:32.941Z,15.17
2019-03-01T07:53:03.790Z,15.87
2019-03-01T07:55:30.197Z,24.60
2019-03-01T07:57:57.909Z,16.10
2019-03-01T08:00:25.634Z,19.30
2019-03-01T08:02:53.369Z,17.80
2019-03-01T08:05:21.104Z,25.80
2019-03-01T08:07:56.188Z,21.47
2019-03-01T08:10:22.416Z,18.10
2019-03-01T08:12:47.912Z,20.50
2019-03-01T08:15:15.613Z,13.90
2019-03-01T08:17:43.353Z,17.20
2019-03-01T08:20:12.762Z,18.63
2019-03-01T08:22:47.895Z,21.67
2019-03-01T08:25:10.569Z,18.27
2019-03-01T08:27:38.278Z,22.17
2019-03-01T08:30:10.335Z,25.07
2019-03-01T08:32:37.101Z,18.07
2019-03-01T08:35:06.114Z,13.13
2019-03-01T08:37:33.923Z,26.20
2019-03-01T08:40:01.634Z,20.90
2019-03-01T08:42:32.725Z,21.00
2019-03-01T08:44:59.355Z,12.60
2019-03-01T08:47:27.221Z,17.83
2019-03-01T08:49:54.917Z,13.77
2019-03-01T08:52:22.622Z,20.80
2019-03-01T08:54:50.346Z,19.23
2019-03-01T08:57:18.065Z,23.17
2019-03-01T08:59:45.801Z,16.43
2019-03-01T09:02:13.514Z,13.70
2019-03-01T09:04:50.501Z,17.67
2019-03-01T09:07:10.774Z,19.27
2019-03-01T09:09:38.501Z,18.90
2019-03-01T09:12:06.210Z,17.87
2019-03-01T09:14:34.030Z,20.13
2019-03-01T09:17:01.818Z,17.80
2019-03-01T09:19:29.543Z,17.07
2019-03-01T09:21:57.273Z,13.87
2019-03-01T09:24:25.781Z,15.93
2019-03-01T09:26:55.162Z,21.70
2019-03-01T09:29:23.926Z,15.37
2019-03-01T09:31:54.287Z,19.03
2019-03-01T09:34:21.381Z,12.43
2019-03-01T09:36:55.615Z,16.03
2019-03-01T09:39:23.570Z,17.33
2019-03-01T09:41:51.306Z,15.10
2019-03-01T09:44:19.089Z,20.50
2019-03-01T09:46:46.813Z,17.10
2019-03-01T09:49:14.544Z,15.00
2019-03-01T09:51:43.708Z,15.47
2019-03-01T09:54:11.817Z,18.80
2019-03-01T09:56:39.575Z,14.70
2019-03-01T09:59:07.277Z,13.50
2019-03-01T10:01:35.013Z,16.60
2019-03-01T10:04:02.908Z,12.20
2019-03-01T10:06:37.905Z,17.40
2019-03-01T10:09:00.172Z,14.80
2019-03-01T10:11:27.904Z,15.97
2019-03-01T10:13:55.624Z,13.03
2019-03-01T10:16:23.359Z,18.70
2019-03-01T10:18:51.079Z,15.47
2019-03-01T10:21:18.811Z,15.87
2019-03-01T10:23:46.541Z,15.83
2019-03-01T10:26:14.327Z,17.03
2019-03-01T10:28:42.269Z,13.40
2019-03-01T10:31:10.006Z,11.80
2019-03-01T10:33:38.064Z,15.43
2019-03-01T10:36:05.986Z,13.10
2019-03-01T10:38:33.717Z,23.47
2019-03-01T10:41:01.477Z,14.13
2019-03-01T10:43:29.201Z,13.13
2019-03-01T10:45:57.043Z,8.73
2019-03-01T10:48:24.788Z,15.73
2019-03-01T10:50:52.492Z,10.67
2019-03-01T10:53:20.234Z,17.40
2019-03-01T10:55:47.946Z,8.03
2019-03-01T10:58:15.689Z,13.23
2019-03-01T11:00:43.453Z,15.77
2019-03-01T11:03:11.194Z,14.10
2019-03-01T11:05:38.917Z,10.20
2019-03-01T11:08:06.713Z,10.77
2019-03-01T11:10:35.330Z,9.57
2019-03-01T11:13:03.074Z,17.90
2019-03-01T11:15:30.802Z,9.03
2019-03-01T11:17:58.537Z,12.27
2019-03-01T11:20:26.351Z,11.20
2019-03-01T11:22:54.069Z,10.13
2019-03-01T11:25:22.089Z,9.63
2019-03-01T11:27:50.075Z,10.50
2019-03-01T11:30:19.994Z,7.27
2019-03-01T11:32:47.740Z,8.83
2019-03-01T11:35:15.582Z,9.90
2019-03-01T11:37:43.322Z,8.90
2019-03-01T11:40:22.030Z,4.77
2019-03-01T11:42:49.773Z,5.40
2019-03-01T11:45:17.589Z,5.43
2019-03-01T11:47:45.362Z,3.97
2019-03-01T11:50:18.053Z,4.23
2019-03-01T11:53:06.233Z,5.40
2019-03-01T11:55:34.075Z,5.27
2019-03-01T11:58:01.777Z,6.83
2019-03-01T12:00:29.485Z,6.93
2019-03-01T12:04:12.319Z,3.13
2019-03-01T12:06:40.064Z,4.77
2019-03-01T12:09:07.793Z,2.97
2019-03-01T12:11:35.665Z,6.07
2019-03-01T12:14:03.399Z,4.43
2019-03-01T12:16:31.114Z,5.57
2019-03-01T12:18:58.834Z,3.57
2019-03-01T12:21:26.731Z,5.20
2019-03-01T12:23:54.457Z,5.00
2019-03-01T12:26:22.189Z,3.67
2019-03-01T12:28:50.202Z,4.73
2019-03-01T12:31:17.893Z,3.17
2019-03-01T12:33:45.661Z,4.43
2019-03-01T12:36:13.384Z,4.07
2019-03-01T12:38:41.207Z,5.13
2019-03-01T12:41:08.996Z,5.73
2019-03-01T12:43:36.841Z,2.73
2019-03-01T12:46:04.649Z,3.57
2019-03-01T12:48:32.489Z,4.27
2019-03-01T12:51:00.205Z,4.03
2019-03-01T12:53:28.062Z,5.23
2019-03-01T12:55:55.770Z,6.67
2019-03-01T12:58:23.493Z,6.97
2019-03-01T13:00:51.207Z,4.83
2019-03-01T13:03:18.949Z,5.80
2019-03-01T13:05:46.657Z,5.90
2019-03-01T13:08:15.780Z,6.47
2019-03-01T13:10:46.104Z,3.77
2019-03-01T13:13:13.991Z,5.60
2019-03-01T13:15:41.854Z,6.73
2019-03-01T13:18:10.251Z,4.47
2019-03-01T13:20:39.241Z,4.03
2019-03-01T13:23:06.947Z,5.17
2019-03-01T13:25:34.689Z,3.87
2019-03-01T13:28:02.641Z,5.57
2019-03-01T13:30:32.471Z,4.60
2019-03-01T13:33:02.571Z,6.37
2019-03-01T13:35:29.806Z,4.27
2019-03-01T13:37:57.724Z,4.23
2019-03-01T13:40:25.586Z,5.67
2019-03-01T13:42:53.302Z,3.57
2019-03-01T13:45:21.464Z,5.57
2019-03-01T13:47:49.516Z,2.90
2019-03-01T13:50:17.578Z,7.00
2019-03-01T13:52:45.677Z,3.30
2019-03-01T13:55:14.833Z,4.70
2019-03-01T13:57:46.064Z,7.90
2019-03-01T14:00:15.083Z,5.13
2019-03-01T14:02:43.034Z,4.23
2019-03-01T14:05:13.326Z,6.73
2019-03-01T14:07:41.333Z,6.60
2019-03-01T14:10:11.347Z,4.20
2019-03-01T14:12:39.072Z,7.83
2019-03-01T14:15:08.932Z,7.80
2019-03-01T14:17:36.668Z,5.83
2019-03-01T14:20:05.502Z,4.47
2019-03-01T14:22:33.353Z,2.90
2019-03-01T14:25:02.560Z,4.97
2019-03-01T14:27:30.834Z,5.33
2019-03-01T14:29:58.741Z,4.53
2019-03-01T14:32:26.482Z,7.13
2019-03-01T14:34:54.201Z,6.27
2019-03-01T14:37:22.141Z,7.10
2019-03-01T14:39:50.334Z,3.03
2019-03-01T14:42:18.109Z,5.33
2019-03-01T14:44:45.809Z,7.17
2019-03-01T14:47:13.617Z,4.73
2019-03-01T14:49:41.557Z,4.70
2019-03-01T14:52:09.382Z,4.73
2019-03-01T14:54:37.081Z,7.00
2019-03-01T14:57:11.861Z,8.00
2019-03-01T15:00:19.202Z,7.27
2019-03-01T15:03:16.149Z,8.27
2019-03-01T15:05:38.730Z,6.77
2019-03-01T15:08:08.234Z,6.83
2019-03-01T15:10:36.185Z,3.10
2019-03-01T15:13:03.915Z,4.53
2019-03-01T15:15:32.442Z,3.93
2019-03-01T15:18:00.159Z,5.00
2019-03-01T15:20:27.877Z,3.70
2019-03-01T15:22:55.594Z,3.50
2019-03-01T15:25:23.292Z,7.10
2019-03-01T15:27:51.017Z,6.93
2019-03-01T15:30:18.958Z,8.93
2019-03-01T15:32:46.946Z,7.63
2019-03-01T15:35:14.656Z,4.07
2019-03-01T15:37:42.375Z,6.47
2019-03-01T15:40:10.149Z,5.90
2019-03-01T15:42:37.885Z,6.57
2019-03-01T15:45:06.333Z,6.30
2019-03-01T15:47:34.113Z,8.47
2019-03-01T15:50:01.856Z,6.23
2019-03-01T15:52:29.577Z,12.80
2019-03-01T15:54:57.666Z,6.17
2019-03-01T15:57:26.065Z,11.00
2019-03-01T15:59:53.830Z,5.40
2019-03-01T16:02:21.578Z,4.13
2019-03-01T16:04:49.382Z,6.33
2019-03-01T16:07:17.083Z,3.90
2019-03-01T16:09:45.041Z,4.00
2019-03-01T16:12:12.741Z,4.87
2019-03-01T16:14:40.508Z,4.40
2019-03-01T16:17:08.220Z,4.47
2019-03-01T16:19:36.071Z,5.00
2019-03-01T16:22:04.481Z,7.87
2019-03-01T16:24:32.239Z,5.70
2019-03-01T16:27:00.121Z,6.27
2019-03-01T16:29:27.844Z,6.13
2019-03-01T16:31:55.862Z,5.30
2019-03-01T16:34:24.012Z,4.97
2019-03-01T16:36:56.425Z,4.57
2019-03-01T16:39:24.763Z,4.77
2019-03-01T16:41:52.769Z,10.87
2019-03-01T16:44:20.467Z,5.27
2019-03-01T16:46:48.289Z,5.83
2019-03-01T16:49:16.057Z,3.83
2019-03-01T16:51:43.890Z,5.63
2019-03-01T16:54:15.376Z,4.80
2019-03-01T16:56:41.453Z,2.73
2019-03-01T16:59:09.165Z,2.90
2019-03-01T17:01:37.097Z,3.83
2019-03-01T17:04:05.105Z,3.43
2019-03-01T17:06:32.834Z,3.70
2019-03-01T17:09:00.537Z,5.73
2019-03-01T17:11:28.286Z,3.40
2019-03-01T17:13:55.993Z,4.87
2019-03-01T17:16:24.585Z,5.60
2019-03-01T17:18:52.365Z,7.47
2019-03-01T17:21:20.100Z,3.33
2019-03-01T17:23:47.806Z,2.53
2019-03-01T17:26:15.716Z,3.80
2019-03-01T17:28:43.419Z,2.80
2019-03-01T17:31:11.154Z,5.70
2019-03-01T17:33:39.093Z,8.27
2019-03-01T17:36:07.006Z,6.40
2019-03-01T17:38:34.713Z,4.93
2019-03-01T17:41:02.449Z,7.23
2019-03-01T17:43:32.722Z,7.10
2019-03-01T17:45:59.926Z,7.13
2019-03-01T17:48:29.534Z,9.73
2019-03-01T17:50:57.226Z,6.57
2019-03-01T17:53:24.959Z,9.97
2019-03-01T17:55:52.656Z,7.90
2019-03-01T17:58:20.406Z,7.33
2019-03-01T18:00:48.105Z,7.60
2019-03-01T18:03:15.935Z,10.90
2019-03-01T18:05:43.665Z,7.17
2019-03-01T18:08:11.600Z,12.93
2019-03-01T18:10:39.465Z,5.83
2019-03-01T18:13:07.208Z,5.27
2019-03-01T18:15:34.925Z,7.53
2019-03-01T18:18:02.981Z,8.03
2019-03-01T18:20:33.882Z,7.30
2019-03-01T18:23:02.347Z,9.50
2019-03-01T18:25:30.065Z,5.65
2019-03-01T18:27:58.233Z,8.53
2019-03-01T18:30:26.109Z,11.97
2019-03-01T18:32:54.218Z,10.30
2019-03-01T18:35:21.921Z,5.13
2019-03-01T18:37:51.385Z,7.03
2019-03-01T18:40:19.459Z,8.27
2019-03-01T18:42:47.181Z,9.70
2019-03-01T18:45:15.727Z,7.20
2019-03-01T18:47:43.596Z,8.73
2019-03-01T18:50:14.142Z,6.20
2019-03-01T18:52:41.885Z,6.23
2019-03-01T18:55:09.799Z,7.63
2019-03-01T18:57:38.649Z,10.67
2019-03-01T19:00:23.715Z,10.10
2019-03-01T19:02:51.475Z,4.60
2019-03-01T19:05:19.243Z,4.33
2019-03-01T19:07:47.082Z,5.90
2019-03-01T19:10:15.005Z,7.73
2019-03-01T19:12:44.892Z,7.10
2019-03-01T19:15:15.609Z,8.63
2019-03-01T19:17:42.233Z,8.77
2019-03-01T19:20:12.249Z,7.43
2019-03-01T19:22:40.109Z,6.80
2019-03-01T19:25:08.726Z,7.60
2019-03-01T19:27:36.451Z,10.20
2019-03-01T19:30:05.044Z,8.70
2019-03-01T19:32:32.859Z,8.00
2019-03-01T19:35:00.593Z,7.10
2019-03-01T19:37:28.521Z,8.43
2019-03-01T19:39:56.336Z,9.23
2019-03-01T19:42:24.002Z,9.60
2019-03-01T19:44:51.739Z,11.20
2019-03-01T19:47:19.501Z,10.37
2019-03-01T19:49:48.577Z,10.83
2019-03-01T19:52:16.753Z,11.50
2019-03-01T19:54:44.486Z,7.10
2019-03-01T19:57:12.252Z,11.70
2019-03-01T19:59:40.092Z,14.60
2019-03-01T20:02:07.817Z,10.20
2019-03-01T20:04:35.541Z,11.20
2019-03-01T20:07:03.243Z,8.93
2019-03-01T20:09:30.969Z,16.23
2019-03-01T20:11:59.262Z,11.33
2019-03-01T20:14:30.329Z,12.87
2019-03-01T20:16:58.188Z,12.07
2019-03-01T20:19:26.708Z,15.10
2019-03-01T20:21:54.474Z,12.77
2019-03-01T20:24:22.191Z,9.63
2019-03-01T20:26:49.903Z,13.07
2019-03-01T20:29:17.627Z,10.47
2019-03-01T20:31:45.462Z,9.33
2019-03-01T20:34:13.371Z,11.60
2019-03-01T20:36:41.826Z,13.23
2019-03-01T20:39:11.769Z,15.63
2019-03-01T20:41:40.135Z,12.97
2019-03-01T20:44:08.784Z,14.07
2019-03-01T20:46:36.503Z,10.30
2019-03-01T20:49:04.742Z,13.47
2019-03-01T20:51:32.633Z,13.70
2019-03-01T20:54:01.068Z,10.30
2019-03-01T20:56:28.910Z,10.43
2019-03-01T20:58:56.629Z,10.23
2019-03-01T21:01:24.373Z,11.18
2019-03-01T21:03:52.098Z,11.07
2019-03-01T21:06:27.957Z,16.07
2019-03-01T21:08:55.701Z,12.37
2019-03-01T21:11:25.538Z,8.57
2019-03-01T21:13:53.060Z,8.60
2019-03-01T21:16:20.774Z,13.70
2019-03-01T21:18:48.633Z,10.23
2019-03-01T21:21:16.353Z,9.80
2019-03-01T21:23:44.072Z,8.23
2019-03-01T21:26:12.099Z,12.00
2019-03-01T21:28:41.912Z,10.30
2019-03-01T21:31:09.653Z,7.37
2019-03-01T21:33:37.489Z,8.70
2019-03-01T21:36:05.381Z,8.10
2019-03-01T21:38:33.323Z,7.57
2019-03-01T21:41:01.045Z,7.50
2019-03-01T21:43:30.569Z,9.87
2019-03-01T21:45:58.995Z,8.67
2019-03-01T21:48:27.697Z,7.40
2019-03-01T21:50:55.569Z,7.00
2019-03-01T21:53:25.310Z,8.43
2019-03-01T21:55:52.828Z,7.37
2019-03-01T21:58:20.553Z,7.80
2019-03-01T22:00:48.261Z,12.17
2019-03-01T22:03:15.993Z,6.43
2019-03-01T22:05:45.265Z,9.93
2019-03-01T22:08:13.825Z,7.17
2019-03-01T22:10:41.801Z,7.80
2019-03-01T22:13:09.548Z,6.20
2019-03-01T22:15:37.253Z,8.30
2019-03-01T22:18:04.982Z,9.33
2019-03-01T22:20:32.703Z,8.73
2019-03-01T22:23:00.421Z,6.63
2019-03-01T22:25:28.285Z,7.10
2019-03-01T22:27:57.660Z,7.80
2019-03-01T22:30:27.343Z,5.37
2019-03-01T22:32:55.429Z,4.90
2019-03-01T22:35:23.133Z,6.67
2019-03-01T22:37:50.857Z,8.40
2019-03-01T22:40:18.573Z,7.37
2019-03-01T22:42:49.685Z,7.83
2019-03-01T22:45:16.164Z,6.87
2019-03-01T22:47:43.890Z,12.07
2019-03-01T22:50:12.576Z,13.03
2019-03-01T22:52:40.359Z,8.30
2019-03-01T22:55:09.072Z,12.43
2019-03-01T22:57:36.913Z,9.20
2019-03-01T23:00:07.371Z,9.63
2019-03-01T23:02:35.117Z,7.80
2019-03-01T23:05:03.868Z,8.80
2019-03-01T23:07:32.568Z,10.03
2019-03-01T23:10:00.496Z,7.77
2019-03-01T23:12:28.201Z,7.37
2019-03-01T23:14:55.925Z,9.00
2019-03-01T23:17:23.626Z,10.57
2019-03-01T23:19:51.652Z,8.40
2019-03-01T23:22:20.373Z,9.83
2019-03-01T23:24:49.433Z,12.23
2019-03-01T23:27:17.252Z,6.97
2019-03-01T23:29:44.969Z,9.77
2019-03-01T23:32:15.525Z,8.30
2019-03-01T23:34:42.544Z,8.07
2019-03-01T23:37:10.417Z,6.53
2019-03-01T23:39:38.148Z,7.00
2019-03-01T23:42:05.864Z,7.17
2019-03-01T23:44:33.506Z,6.57
2019-03-01T23:47:02.791Z,7.20
2019-03-01T23:49:30.749Z,7.03
2019-03-01T23:51:58.485Z,6.93
2019-03-01T23:54:26.209Z,11.30
2019-03-01T23:56:53.921Z,8.20
2019-03-01T23:59:23.833Z,6.50
